Time;durP1;ratioP1;P1;durP2;ratioP2;P2;SDS_P1;SDS_P2;PMS_P1;PMS_P2;Temp;Humidity;BMP_temperature;BMP_pressure;BME280_temperature;BME280_humidity;BME280_pressure;Samples;Min_cycle;Max_cycle;Signal;HPM_P1;HPM_P2
2023/10/20 00:00:58;;;;;;;10.88;8.90;;;15.40;99.90;;;;;;2099135;28;20028;-74
2023/10/20 00:01:58;;;;;;;11.25;8.68;;;15.40;99.90;;;;;;2098536;28;20428;-74
2023/10/20 00:02:59;;;;;;;11.30;8.90;;;15.40;99.90;;;;;;2098825;28;20036;-75
2023/10/20 00:03:59;;;;;;;11.98;8.98;;;15.40;99.90;;;;;;2097379;28;20464;-73
2023/10/20 00:05:03;;;;;;;10.25;8.30;;;15.40;99.90;;;;;;2098454;28;20013;-73
2023/10/20 00:06:08;;;;;;;11.63;9.13;;;15.40;99.90;;;;;;2099527;28;20020;-73
2023/10/20 00:07:09;;;;;;;13.95;8.50;;;15.40;99.90;;;;;;2100393;28;20028;-74
2023/10/20 00:08:10;;;;;;;10.38;9.07;;;15.50;99.90;;;;;;2102427;28;20459;-75
2023/10/20 00:09:14;;;;;;;10.10;8.52;;;15.40;99.90;;;;;;2104516;28;20132;-74
2023/10/20 00:10:15;;;;;;;9.63;8.43;;;15.50;99.90;;;;;;2099235;28;20074;-74
2023/10/20 00:11:15;;;;;;;9.93;9.02;;;15.40;99.90;;;;;;2092927;28;20027;-73
2023/10/20 00:12:16;;;;;;;12.60;9.10;;;15.40;99.90;;;;;;2096875;28;20032;-74
2023/10/20 00:13:17;;;;;;;11.13;9.20;;;15.50;99.90;;;;;;2102199;28;20025;-74
2023/10/20 00:14:17;;;;;;;14.20;9.55;;;15.50;99.90;;;;;;2103124;28;20032;-74
2023/10/20 00:15:20;;;;;;;12.50;9.02;;;15.50;99.90;;;;;;2100416;28;20420;-75
2023/10/20 00:16:28;;;;;;;9.98;8.73;;;15.50;99.90;;;;;;2102386;28;20383;-74
2023/10/20 00:17:29;;;;;;;10.52;8.93;;;15.50;99.90;;;;;;2104160;28;20406;-74
2023/10/20 00:18:30;;;;;;;9.93;8.98;;;15.50;99.90;;;;;;2105355;28;20612;-75
2023/10/20 00:19:31;;;;;;;9.77;8.75;;;15.50;99.90;;;;;;2096981;28;20028;-74
2023/10/20 00:20:32;;;;;;;12.50;9.15;;;15.50;99.90;;;;;;2097233;28;20027;-73
2023/10/20 00:21:32;;;;;;;12.73;8.85;;;15.50;99.90;;;;;;2105497;28;20086;-75
2023/10/20 00:22:33;;;;;;;10.88;9.60;;;15.50;99.90;;;;;;2101189;28;20105;-74
2023/10/20 00:23:33;;;;;;;10.07;9.05;;;15.50;99.90;;;;;;2100975;28;20108;-74
2023/10/20 00:24:34;;;;;;;9.75;8.80;;;15.50;99.90;;;;;;2102752;28;20049;-74
2023/10/20 00:25:35;;;;;;;13.55;9.73;;;15.60;99.90;;;;;;2102040;28;20118;-73
2023/10/20 00:26:35;;;;;;;10.23;9.25;;;15.60;99.90;;;;;;2100912;28;20024;-74
2023/10/20 00:27:36;;;;;;;10.40;9.07;;;15.50;99.90;;;;;;2101879;28;20029;-74
2023/10/20 00:28:36;;;;;;;10.35;9.35;;;15.60;99.90;;;;;;2099552;28;20073;-74
2023/10/20 00:29:37;;;;;;;10.13;9.13;;;15.60;99.90;;;;;;2101897;28;20058;-72
2023/10/20 00:30:41;;;;;;;11.65;9.55;;;15.60;99.90;;;;;;2101939;28;20031;-74
2023/10/20 00:31:42;;;;;;;9.52;8.63;;;15.60;99.90;;;;;;2099745;28;20039;-74
2023/10/20 00:32:43;;;;;;;9.95;8.95;;;15.60;99.90;;;;;;2098789;28;20031;-73
2023/10/20 00:33:45;;;;;;;10.35;9.00;;;15.60;99.90;;;;;;2099705;28;20054;-74
2023/10/20 00:34:46;;;;;;;10.43;9.43;;;15.60;99.90;;;;;;2102177;28;20036;-73
2023/10/20 00:35:47;;;;;;;10.05;8.98;;;15.60;99.90;;;;;;2099404;28;20099;-73
2023/10/20 00:36:48;;;;;;;10.25;8.95;;;15.60;99.90;;;;;;2101742;28;20032;-73
2023/10/20 00:37:48;;;;;;;11.57;8.65;;;15.60;99.90;;;;;;2102516;28;20052;-73
2023/10/20 00:38:49;;;;;;;11.55;9.30;;;15.60;99.90;;;;;;2100017;28;20438;-73
2023/10/20 00:39:49;;;;;;;9.90;8.43;;;15.60;99.90;;;;;;2101680;28;20020;-74
2023/10/20 00:40:50;;;;;;;10.15;8.80;;;15.60;99.90;;;;;;2102373;28;20051;-72
2023/10/20 00:41:51;;;;;;;10.98;9.07;;;15.60;99.90;;;;;;2102008;28;20027;-73
2023/10/20 00:42:51;;;;;;;11.30;9.10;;;15.60;99.90;;;;;;2102235;28;20032;-73
2023/10/20 00:43:53;;;;;;;11.77;8.13;;;15.60;99.90;;;;;;2100692;28;20028;-73
2023/10/20 00:44:53;;;;;;;10.88;9.25;;;15.60;99.90;;;;;;2100270;28;20030;-74
2023/10/20 00:45:54;;;;;;;9.05;8.20;;;15.60;99.90;;;;;;2100278;28;20036;-73
2023/10/20 00:46:55;;;;;;;10.02;8.73;;;15.60;99.90;;;;;;2099247;28;20025;-72
2023/10/20 00:47:57;;;;;;;9.18;8.27;;;15.60;99.90;;;;;;2100610;28;20017;-73
2023/10/20 00:48:58;;;;;;;10.65;8.50;;;15.70;99.90;;;;;;2100154;28;20019;-73
2023/10/20 00:49:59;;;;;;;9.45;8.50;;;15.70;99.90;;;;;;2104409;28;20077;-73
2023/10/20 00:51:00;;;;;;;9.20;8.32;;;15.70;99.90;;;;;;2104500;28;20501;-73
2023/10/20 00:52:01;;;;;;;9.40;8.00;;;15.70;99.90;;;;;;2101089;28;20427;-73
2023/10/20 00:53:03;;;;;;;10.90;9.05;;;15.70;99.90;;;;;;2100449;28;20055;-72
2023/10/20 00:54:06;;;;;;;10.82;9.50;;;15.70;99.90;;;;;;2101015;28;20039;-72
2023/10/20 00:55:08;;;;;;;9.32;8.48;;;15.70;99.90;;;;;;2101124;28;20024;-73
2023/10/20 00:56:10;;;;;;;9.95;8.95;;;15.70;99.90;;;;;;2100144;28;20039;-73
2023/10/20 00:57:14;;;;;;;10.00;8.98;;;15.70;99.90;;;;;;2098972;28;20028;-73
2023/10/20 00:58:15;;;;;;;10.00;9.00;;;15.60;99.90;;;;;;2102158;28;20020;-74
2023/10/20 00:59:16;;;;;;;9.90;8.90;;;15.60;99.90;;;;;;2099670;28;20675;-71
2023/10/20 01:00:17;;;;;;;9.15;8.32;;;15.70;99.90;;;;;;2090679;28;20238;-71
2023/10/20 01:01:18;;;;;;;10.38;8.88;;;15.70;99.90;;;;;;2101437;28;20140;-72
2023/10/20 01:02:20;;;;;;;10.05;9.15;;;15.70;99.90;;;;;;2099861;28;20109;-72
2023/10/20 01:03:22;;;;;;;11.05;9.30;;;15.70;99.90;;;;;;2101229;28;20024;-72
2023/10/20 01:04:22;;;;;;;15.13;9.15;;;15.70;99.90;;;;;;2097695;28;20021;-73
2023/10/20 01:05:23;;;;;;;10.43;9.35;;;15.70;99.90;;;;;;2103796;28;20080;-72
2023/10/20 01:06:25;;;;;;;12.05;9.38;;;15.70;99.90;;;;;;2100606;28;20726;-71
2023/10/20 01:07:25;;;;;;;12.00;9.00;;;15.70;99.90;;;;;;2101237;28;20020;-71
2023/10/20 01:08:26;;;;;;;9.90;8.70;;;15.70;99.90;;;;;;2100897;28;20034;-72
2023/10/20 01:09:27;;;;;;;9.85;8.88;;;15.70;99.90;;;;;;2100421;28;20020;-72
2023/10/20 01:10:28;;;;;;;9.73;8.82;;;15.70;99.90;;;;;;2100754;28;20387;-72
2023/10/20 01:11:29;;;;;;;10.57;9.32;;;15.70;99.90;;;;;;2099297;28;20036;-72
2023/10/20 01:12:31;;;;;;;10.35;9.35;;;15.70;99.90;;;;;;2100326;28;20027;-72
2023/10/20 01:13:31;;;;;;;9.63;8.73;;;15.70;99.90;;;;;;2101213;28;20031;-72
2023/10/20 01:14:32;;;;;;;12.05;9.20;;;15.70;99.90;;;;;;2103858;28;20467;-73
2023/10/20 01:15:32;;;;;;;10.98;9.85;;;15.60;99.90;;;;;;2105205;28;20024;-72
2023/10/20 01:16:33;;;;;;;11.57;9.20;;;15.70;99.90;;;;;;2103564;28;20035;-72
2023/10/20 01:17:34;;;;;;;10.57;9.30;;;15.70;99.90;;;;;;2093085;28;20028;-72
2023/10/20 01:18:34;;;;;;;11.52;10.43;;;15.70;99.90;;;;;;2093192;28;20024;-72
2023/10/20 01:19:37;;;;;;;11.00;9.90;;;15.70;99.90;;;;;;2098950;28;20119;-72
2023/10/20 01:20:38;;;;;;;10.50;9.40;;;15.70;99.90;;;;;;2099215;28;20078;-73
2023/10/20 01:21:39;;;;;;;14.65;10.23;;;15.70;99.90;;;;;;2100241;28;20379;-72
2023/10/20 01:22:40;;;;;;;10.63;9.23;;;15.70;99.90;;;;;;2099904;28;20060;-72
2023/10/20 01:23:41;;;;;;;11.38;9.88;;;15.70;99.90;;;;;;2099428;28;20619;-72
2023/10/20 01:24:42;;;;;;;12.07;10.35;;;15.70;99.90;;;;;;2096927;28;20510;-72
2023/10/20 01:25:43;;;;;;;11.40;9.82;;;15.70;99.90;;;;;;2097005;28;20036;-73
2023/10/20 01:26:44;;;;;;;16.20;10.23;;;15.70;99.90;;;;;;2097794;28;20403;-73
2023/10/20 01:27:45;;;;;;;15.75;10.48;;;15.70;99.90;;;;;;2095644;28;20017;-72
2023/10/20 01:28:45;;;;;;;10.45;9.45;;;15.70;99.90;;;;;;2100495;28;20024;-72
2023/10/20 01:29:47;;;;;;;10.95;9.95;;;15.70;99.90;;;;;;2100318;28;20039;-72
2023/10/20 01:30:48;;;;;;;11.27;10.07;;;15.70;99.90;;;;;;2099778;28;20032;-72
2023/10/20 01:31:49;;;;;;;11.02;9.95;;;15.70;99.90;;;;;;2098154;28;20024;-72
2023/10/20 01:32:49;;;;;;;9.77;8.88;;;15.70;99.90;;;;;;2098852;28;21712;-72
2023/10/20 01:33:50;;;;;;;11.05;9.95;;;15.70;99.90;;;;;;2100142;28;20423;-72
2023/10/20 01:34:50;;;;;;;10.70;9.70;;;15.70;99.90;;;;;;2098258;28;20482;-71
2023/10/20 01:35:51;;;;;;;10.38;9.27;;;15.70;99.90;;;;;;2097464;28;20041;-72
2023/10/20 01:36:52;;;;;;;10.55;9.55;;;15.70;99.90;;;;;;2101268;28;20487;-72
2023/10/20 01:37:53;;;;;;;10.25;9.25;;;15.70;99.90;;;;;;2100149;28;20031;-72
2023/10/20 01:38:53;;;;;;;11.23;10.00;;;15.70;99.90;;;;;;2100485;28;20047;-72
2023/10/20 01:39:55;;;;;;;12.25;9.70;;;15.70;99.90;;;;;;2098001;28;20056;-73
2023/10/20 01:40:55;;;;;;;10.35;9.35;;;15.70;99.90;;;;;;2098142;28;20059;-72
2023/10/20 01:41:56;;;;;;;13.10;10.18;;;15.70;99.90;;;;;;2100048;28;20052;-72
2023/10/20 01:42:57;;;;;;;10.65;9.63;;;15.70;99.90;;;;;;2101958;28;20039;-72
2023/10/20 01:44:00;;;;;;;11.55;10.38;;;15.70;99.90;;;;;;2094128;28;20028;-72
2023/10/20 01:45:01;;;;;;;13.68;10.73;;;15.70;99.90;;;;;;2095814;28;20393;-74
2023/10/20 01:46:02;;;;;;;11.05;9.95;;;15.70;99.90;;;;;;2101715;28;20024;-75
2023/10/20 01:47:02;;;;;;;9.98;9.18;;;15.70;99.90;;;;;;2103402;28;20020;-72
2023/10/20 01:48:06;;;;;;;10.32;9.40;;;15.70;99.90;;;;;;2103289;28;20024;-74
2023/10/20 01:49:07;;;;;;;10.55;9.65;;;15.70;99.90;;;;;;2102692;28;20400;-72
2023/10/20 01:50:08;;;;;;;11.52;10.40;;;15.70;99.90;;;;;;2098721;28;20043;-74
2023/10/20 01:51:08;;;;;;;10.57;9.68;;;15.70;99.90;;;;;;2100981;28;20060;-74
2023/10/20 01:52:09;;;;;;;12.55;10.43;;;15.70;99.90;;;;;;2101040;28;20028;-74
2023/10/20 01:53:09;;;;;;;11.18;10.07;;;15.70;99.90;;;;;;2101229;28;20088;-73
2023/10/20 01:54:10;;;;;;;10.80;9.68;;;15.70;99.90;;;;;;2099930;28;21101;-74
2023/10/20 01:55:11;;;;;;;9.60;8.70;;;15.70;99.90;;;;;;2102507;28;20371;-74
2023/10/20 01:56:11;;;;;;;12.07;10.60;;;15.70;99.90;;;;;;2101838;28;20031;-73
2023/10/20 01:57:14;;;;;;;10.93;9.30;;;15.70;99.90;;;;;;2091337;28;20020;-74
2023/10/20 01:58:22;;;;;;;13.45;10.70;;;15.70;99.90;;;;;;2098946;28;20024;-74
2023/10/20 01:59:22;;;;;;;13.27;10.90;;;15.70;99.90;;;;;;2099534;28;20024;-74
2023/10/20 02:00:23;;;;;;;11.27;10.27;;;15.70;99.90;;;;;;2097061;28;20033;-74
2023/10/20 02:01:25;;;;;;;11.77;10.57;;;15.70;99.90;;;;;;2097816;28;20036;-75
2023/10/20 02:02:25;;;;;;;11.48;10.20;;;15.70;99.90;;;;;;2097601;28;20406;-74
2023/10/20 02:03:26;;;;;;;13.15;9.75;;;15.70;99.90;;;;;;2102153;28;20047;-73
2023/10/20 02:04:29;;;;;;;11.93;10.68;;;15.70;99.90;;;;;;2103760;28;20336;-73
2023/10/20 02:05:29;;;;;;;10.88;9.85;;;15.70;99.90;;;;;;2099437;28;20509;-73
2023/10/20 02:06:30;;;;;;;12.13;10.93;;;15.70;99.90;;;;;;2097401;28;20024;-74
2023/10/20 02:07:40;;;;;;;11.55;10.40;;;15.70;99.90;;;;;;2098960;28;20110;-73
2023/10/20 02:08:44;;;;;;;12.15;10.95;;;15.70;99.90;;;;;;2098138;28;20544;-74
2023/10/20 02:09:44;;;;;;;13.63;10.10;;;15.70;99.90;;;;;;2099990;28;20058;-72
2023/10/20 02:10:45;;;;;;;11.05;10.05;;;15.70;99.90;;;;;;2099450;28;20050;-72
2023/10/20 02:11:46;;;;;;;11.40;10.30;;;15.70;99.90;;;;;;2098152;28;20074;-73
2023/10/20 02:12:46;;;;;;;13.90;11.30;;;15.80;99.90;;;;;;2100275;28;20077;-74
2023/10/20 02:13:47;;;;;;;11.88;10.77;;;15.80;99.90;;;;;;2100103;28;20054;-73
2023/10/20 02:14:48;;;;;;;12.63;11.43;;;15.80;99.90;;;;;;2098346;28;20135;-73
2023/10/20 02:15:50;;;;;;;12.52;11.27;;;15.80;99.90;;;;;;2103015;28;20122;-72
2023/10/20 02:16:51;;;;;;;11.02;9.98;;;15.80;99.90;;;;;;2102985;28;20169;-74
2023/10/20 02:17:52;;;;;;;11.75;10.55;;;15.80;99.90;;;;;;2099711;28;20029;-72
2023/10/20 02:18:52;;;;;;;12.18;11.07;;;15.80;99.90;;;;;;2097479;28;20052;-72
2023/10/20 02:19:53;;;;;;;11.82;10.70;;;15.80;99.90;;;;;;2099763;28;20048;-73
2023/10/20 02:21:04;;;;;;;12.38;11.07;;;15.80;99.90;;;;;;2097484;28;20566;-73
2023/10/20 02:22:04;;;;;;;11.80;10.70;;;15.80;99.90;;;;;;2099039;28;20055;-74
2023/10/20 02:23:05;;;;;;;12.18;10.88;;;15.80;99.90;;;;;;2099853;28;20032;-73
2023/10/20 02:24:07;;;;;;;12.02;10.77;;;15.80;99.90;;;;;;2097410;28;20055;-72
2023/10/20 02:25:10;;;;;;;12.05;10.93;;;15.80;99.90;;;;;;2097915;28;20448;-74
2023/10/20 02:26:11;;;;;;;11.80;10.60;;;15.80;99.90;;;;;;2100090;28;20023;-73
2023/10/20 02:27:11;;;;;;;12.82;11.52;;;15.80;99.90;;;;;;2097061;28;20052;-72
2023/10/20 02:28:12;;;;;;;11.68;10.57;;;15.80;99.90;;;;;;2099468;28;20021;-72
2023/10/20 02:29:13;;;;;;;11.98;10.68;;;15.80;99.90;;;;;;2091526;28;20021;-74
2023/10/20 02:30:15;;;;;;;14.70;11.30;;;15.80;99.90;;;;;;2096512;28;20024;-74
2023/10/20 02:31:18;;;;;;;12.02;10.82;;;15.80;99.90;;;;;;2106280;28;20020;-73
2023/10/20 02:32:19;;;;;;;11.98;10.77;;;15.80;99.90;;;;;;2097206;28;20025;-73
2023/10/20 02:33:19;;;;;;;12.13;11.02;;;15.80;99.90;;;;;;2098277;28;20032;-73
2023/10/20 02:34:21;;;;;;;13.20;11.77;;;15.80;99.90;;;;;;2100497;28;20519;-72
2023/10/20 02:35:21;;;;;;;12.15;10.95;;;15.80;99.90;;;;;;2098200;28;20418;-73
2023/10/20 02:36:22;;;;;;;14.35;12.40;;;15.80;99.90;;;;;;2098700;28;20103;-73
2023/10/20 02:37:26;;;;;;;13.90;11.55;;;15.80;99.90;;;;;;2102151;28;20035;-73
2023/10/20 02:38:26;;;;;;;12.25;11.15;;;15.80;99.90;;;;;;2102213;28;20031;-72
2023/10/20 02:39:27;;;;;;;13.00;11.55;;;15.80;99.90;;;;;;2099164;28;20107;-73
2023/10/20 02:40:27;;;;;;;12.93;11.68;;;15.80;99.90;;;;;;2099462;28;20746;-73
2023/10/20 02:41:31;;;;;;;12.55;11.35;;;15.80;99.90;;;;;;2099924;28;20467;-74
2023/10/20 02:42:32;;;;;;;12.38;11.18;;;15.70;99.90;;;;;;2107135;28;20020;-74
2023/10/20 02:43:33;;;;;;;13.05;11.75;;;15.80;99.90;;;;;;2099934;28;20106;-72
2023/10/20 02:44:33;;;;;;;12.75;11.48;;;15.80;99.90;;;;;;2089647;28;20033;-73
2023/10/20 02:45:34;;;;;;;12.40;11.02;;;15.70;99.90;;;;;;2101674;28;21555;-74
2023/10/20 02:46:34;;;;;;;11.80;10.70;;;15.70;99.90;;;;;;2097745;28;20016;-72
2023/10/20 02:47:35;;;;;;;12.68;11.32;;;15.70;99.90;;;;;;2099039;28;20074;-73
2023/10/20 02:48:35;;;;;;;12.30;11.20;;;15.70;99.90;;;;;;2098082;28;20131;-73
2023/10/20 02:49:36;;;;;;;12.52;11.25;;;15.70;99.90;;;;;;2102850;28;20024;-72
2023/10/20 02:50:38;;;;;;;12.60;11.27;;;15.70;99.90;;;;;;2093839;28;20565;-74
2023/10/20 02:51:39;;;;;;;12.90;10.85;;;15.70;99.90;;;;;;2099687;28;20048;-73
2023/10/20 02:52:40;;;;;;;11.38;10.35;;;15.80;99.90;;;;;;2100247;28;20059;-73
2023/10/20 02:53:41;;;;;;;12.02;10.90;;;15.70;99.90;;;;;;2099225;28;20020;-74
2023/10/20 02:54:41;;;;;;;12.73;11.50;;;15.70;99.90;;;;;;2097188;28;20479;-73
2023/10/20 02:55:42;;;;;;;12.27;10.98;;;15.80;99.90;;;;;;2098174;28;20452;-74
2023/10/20 02:56:44;;;;;;;12.02;10.82;;;15.70;99.90;;;;;;2099518;28;20031;-73
2023/10/20 02:57:45;;;;;;;13.88;10.95;;;15.70;99.90;;;;;;2095319;28;20383;-72
2023/10/20 02:58:47;;;;;;;14.02;11.07;;;15.70;99.90;;;;;;2097002;28;20069;-72
2023/10/20 02:59:48;;;;;;;12.02;10.77;;;15.70;99.90;;;;;;2101695;28;20053;-73
2023/10/20 03:00:50;;;;;;;12.25;10.45;;;15.70;99.90;;;;;;2103050;28;20111;-74
2023/10/20 03:01:50;;;;;;;16.08;11.15;;;15.70;99.90;;;;;;2096499;28;20028;-74
2023/10/20 03:02:52;;;;;;;13.32;11.93;;;15.70;99.90;;;;;;2099541;28;20032;-73
2023/10/20 03:03:52;;;;;;;11.38;9.95;;;15.80;99.90;;;;;;2099038;28;20016;-72
2023/10/20 03:04:54;;;;;;;12.38;11.05;;;15.70;99.90;;;;;;2099025;28;20314;-72
2023/10/20 03:05:54;;;;;;;12.18;10.98;;;15.80;99.90;;;;;;2090746;28;20111;-73
2023/10/20 03:06:55;;;;;;;13.80;11.40;;;15.80;99.90;;;;;;2099880;28;20017;-73
2023/10/20 03:07:58;;;;;;;13.05;11.63;;;15.80;99.90;;;;;;2098473;28;20038;-73
2023/10/20 03:09:00;;;;;;;12.30;11.02;;;15.70;99.90;;;;;;2097375;28;20028;-73
2023/10/20 03:10:00;;;;;;;11.20;10.10;;;15.80;99.90;;;;;;2102314;28;20787;-73
2023/10/20 03:11:02;;;;;;;13.52;11.95;;;15.80;99.90;;;;;;2101406;28;20539;-75
2023/10/20 03:12:02;;;;;;;11.50;10.48;;;15.70;99.90;;;;;;2101288;28;20028;-73
2023/10/20 03:13:04;;;;;;;13.63;11.35;;;15.80;99.90;;;;;;2100941;28;20032;-73
2023/10/20 03:14:05;;;;;;;12.60;10.23;;;15.80;99.90;;;;;;2100327;28;20039;-74
2023/10/20 03:15:08;;;;;;;11.88;10.68;;;15.80;99.90;;;;;;2097898;28;20112;-76
2023/10/20 03:16:08;;;;;;;12.80;11.35;;;15.80;99.90;;;;;;2099276;28;20028;-73
2023/10/20 03:17:12;;;;;;;12.00;10.82;;;15.80;99.90;;;;;;2097011;28;20103;-74
2023/10/20 03:18:14;;;;;;;12.30;11.05;;;15.80;99.90;;;;;;2097223;28;20681;-74
2023/10/20 03:19:18;;;;;;;12.30;11.10;;;15.80;99.90;;;;;;2100120;28;20482;-77
2023/10/20 03:20:24;;;;;;;12.13;10.20;;;15.80;99.90;;;;;;2100158;28;20023;-73
2023/10/20 03:21:28;;;;;;;13.27;10.70;;;15.80;99.90;;;;;;2098339;28;20066;-72
2023/10/20 03:22:29;;;;;;;13.98;11.07;;;15.80;99.90;;;;;;2099739;28;20409;-73
2023/10/20 03:23:31;;;;;;;11.15;10.15;;;15.80;99.90;;;;;;2099933;28;20099;-74
2023/10/20 03:24:32;;;;;;;12.30;11.10;;;15.80;99.90;;;;;;2099406;28;20632;-73
2023/10/20 03:25:33;;;;;;;10.85;9.85;;;15.80;99.90;;;;;;2098848;28;20024;-72
2023/10/20 03:26:42;;;;;;;18.10;10.85;;;15.80;99.90;;;;;;2100874;28;20093;-74
2023/10/20 03:27:43;;;;;;;12.10;10.88;;;15.80;99.90;;;;;;2100266;28;20016;-75
2023/10/20 03:31:24;;;;;;;11.85;10.70;;;15.80;99.90;;;;;;2098654;28;20384;-73
2023/10/20 03:32:24;;;;;;;11.52;10.48;;;15.80;99.90;;;;;;2091411;28;20037;-74
2023/10/20 03:33:25;;;;;;;11.70;10.60;;;15.80;99.90;;;;;;2097857;28;20017;-74
2023/10/20 03:34:26;;;;;;;12.52;10.70;;;15.80;99.90;;;;;;2100225;28;20027;-74
2023/10/20 03:35:27;;;;;;;11.48;10.38;;;15.80;99.90;;;;;;2098145;28;20020;-74
2023/10/20 03:36:27;;;;;;;11.65;10.45;;;15.80;99.90;;;;;;2098865;28;20143;-72
2023/10/20 03:37:29;;;;;;;11.20;10.10;;;15.80;99.90;;;;;;2097284;28;20024;-72
2023/10/20 03:38:30;;;;;;;14.45;10.65;;;15.80;99.90;;;;;;2097393;28;20044;-75
2023/10/20 03:39:33;;;;;;;10.75;9.65;;;15.80;99.90;;;;;;2098022;28;20478;-74
2023/10/20 03:40:37;;;;;;;11.73;10.50;;;15.80;99.90;;;;;;2097938;28;20230;-73
2023/10/20 03:41:40;;;;;;;11.48;10.38;;;15.80;99.90;;;;;;2098712;28;20534;-75
2023/10/20 03:42:43;;;;;;;12.05;10.93;;;15.80;99.90;;;;;;2098188;28;20151;-72
2023/10/20 03:43:44;;;;;;;11.50;10.40;;;15.80;99.90;;;;;;2097074;28;20026;-71
2023/10/20 03:44:47;;;;;;;11.60;10.50;;;15.80;99.90;;;;;;2095643;28;20024;-72
2023/10/20 03:45:56;;;;;;;11.57;10.38;;;15.80;99.90;;;;;;2098318;28;20017;-72
2023/10/20 03:46:57;;;;;;;11.30;10.23;;;15.80;99.90;;;;;;2091928;28;20028;-72
2023/10/20 03:47:58;;;;;;;15.38;11.75;;;15.90;99.90;;;;;;2092510;28;20024;-72
2023/10/20 03:48:59;;;;;;;11.77;10.73;;;15.90;99.90;;;;;;2092350;28;20119;-72
2023/10/20 03:50:00;;;;;;;12.88;11.50;;;15.80;99.90;;;;;;2098246;28;20027;-72
2023/10/20 03:51:05;;;;;;;12.70;11.25;;;15.90;99.90;;;;;;2098472;28;20017;-72
2023/10/20 03:52:06;;;;;;;11.90;10.90;;;15.80;99.90;;;;;;2100272;28;20502;-71
2023/10/20 03:53:07;;;;;;;11.63;10.43;;;15.90;99.90;;;;;;2097815;28;20021;-72
2023/10/20 03:54:07;;;;;;;13.02;11.82;;;15.90;99.90;;;;;;2097991;28;20033;-72
2023/10/20 03:55:10;;;;;;;12.95;11.50;;;15.90;99.90;;;;;;2097707;28;20040;-72
2023/10/20 03:56:11;;;;;;;13.13;11.93;;;15.90;99.90;;;;;;2097380;28;20021;-72
2023/10/20 03:57:15;;;;;;;13.25;12.05;;;15.90;99.90;;;;;;2102225;28;20026;-72
2023/10/20 03:58:16;;;;;;;13.20;11.90;;;15.90;99.90;;;;;;2102116;28;20022;-72
2023/10/20 03:59:17;;;;;;;13.13;11.80;;;15.90;99.90;;;;;;2096737;28;20031;-72
2023/10/20 04:00:18;;;;;;;14.00;12.70;;;15.90;99.90;;;;;;2097941;28;20036;-74
2023/10/20 04:01:18;;;;;;;15.30;13.65;;;15.90;99.90;;;;;;2097781;28;20024;-74
2023/10/20 04:02:19;;;;;;;14.13;12.63;;;15.90;99.90;;;;;;2098878;28;20458;-71
2023/10/20 04:03:19;;;;;;;15.55;12.82;;;15.80;99.90;;;;;;2101032;28;20027;-74
2023/10/20 04:04:20;;;;;;;15.02;12.18;;;15.80;99.90;;;;;;2102726;28;20124;-72
2023/10/20 04:05:21;;;;;;;13.70;12.35;;;15.90;99.90;;;;;;2097112;28;20091;-72
2023/10/20 04:06:22;;;;;;;14.32;13.02;;;15.90;99.90;;;;;;2097895;28;20043;-74
2023/10/20 04:07:24;;;;;;;14.45;13.20;;;15.90;99.90;;;;;;2102001;28;20463;-74
2023/10/20 04:08:25;;;;;;;15.18;13.68;;;15.90;99.90;;;;;;2102808;28;20012;-74
2023/10/20 04:09:25;;;;;;;15.32;12.90;;;15.90;99.90;;;;;;2096971;28;20021;-74
2023/10/20 04:10:26;;;;;;;14.85;13.43;;;15.90;99.90;;;;;;2097619;28;20027;-75
2023/10/20 04:11:27;;;;;;;16.20;14.57;;;15.90;99.90;;;;;;2099427;28;20501;-74
2023/10/20 04:12:28;;;;;;;15.57;14.05;;;15.90;99.90;;;;;;2098577;28;20040;-73
2023/10/20 04:13:29;;;;;;;15.73;14.23;;;15.90;99.90;;;;;;2097252;28;20028;-74
2023/10/20 04:14:34;;;;;;;17.40;15.80;;;15.90;99.90;;;;;;2098863;28;20028;-74
2023/10/20 04:15:36;;;;;;;16.52;15.02;;;15.90;99.90;;;;;;2097888;28;20023;-74
2023/10/20 04:16:41;;;;;;;16.98;15.27;;;15.90;99.90;;;;;;2098790;28;20033;-71
2023/10/20 04:17:44;;;;;;;16.33;14.60;;;15.90;99.90;;;;;;2096626;28;20024;-75
2023/10/20 04:18:50;;;;;;;16.40;14.70;;;15.90;99.90;;;;;;2098845;28;20036;-75
2023/10/20 04:19:52;;;;;;;17.75;14.68;;;15.90;99.90;;;;;;2091408;28;20514;-72
2023/10/20 04:20:57;;;;;;;17.55;15.85;;;15.90;99.90;;;;;;2089329;28;20039;-74
2023/10/20 04:22:02;;;;;;;18.25;16.38;;;15.90;99.90;;;;;;2091038;28;20082;-75
2023/10/20 04:23:04;;;;;;;17.10;15.40;;;15.90;99.90;;;;;;2099084;28;20033;-74
2023/10/20 04:24:09;;;;;;;17.88;15.95;;;15.90;99.90;;;;;;2097706;28;20024;-74
2023/10/20 04:25:33;;;;;;;18.40;16.23;;;15.90;99.90;;;;;;2098953;28;20024;-73
2023/10/20 04:26:42;;;;;;;17.88;16.10;;;15.90;99.90;;;;;;2098026;28;20013;-73
2023/10/20 04:27:51;;;;;;;17.65;15.95;;;15.90;99.90;;;;;;2097574;28;20039;-73
2023/10/20 04:29:08;;;;;;;18.60;16.73;;;15.90;99.90;;;;;;2098157;28;20028;-74
2023/10/20 04:43:42;;;;;;;20.73;18.75;;;15.80;99.90;;;;;;2099130;28;20021;-75
2023/10/20 04:53:53;;;;;;;18.10;16.38;;;15.80;99.90;;;;;;2101382;28;20036;-73
2023/10/20 04:59:53;;;;;;;19.42;17.58;;;15.80;99.90;;;;;;2099502;28;20602;-76
2023/10/20 05:01:04;;;;;;;19.55;17.42;;;15.80;99.90;;;;;;2099885;28;20032;-74
2023/10/20 05:02:24;;;;;;;19.63;17.52;;;15.80;99.90;;;;;;2098670;28;20040;-73
2023/10/20 05:03:44;;;;;;;19.45;17.50;;;15.80;99.90;;;;;;2098478;28;20093;-74
2023/10/20 05:04:49;;;;;;;18.92;17.02;;;15.70;99.90;;;;;;2100150;28;20364;-77
2023/10/20 05:06:05;;;;;;;19.85;17.75;;;15.70;99.90;;;;;;2099072;28;20058;-75
2023/10/20 05:07:08;;;;;;;19.27;17.38;;;15.70;99.90;;;;;;2101076;28;20483;-76
2023/10/20 05:09:15;;;;;;;20.67;18.08;;;15.80;99.90;;;;;;2100046;28;20043;-75
2023/10/20 05:10:19;;;;;;;17.70;16.00;;;15.80;99.90;;;;;;2101581;28;20013;-76
2023/10/20 05:11:20;;;;;;;18.58;16.88;;;15.80;99.90;;;;;;2100757;28;20024;-75
2023/10/20 05:12:21;;;;;;;18.75;16.95;;;15.80;99.90;;;;;;2101520;28;20028;-76
2023/10/20 05:13:22;;;;;;;18.02;16.13;;;15.80;99.90;;;;;;2102466;28;20490;-74
2023/10/20 05:14:23;;;;;;;18.00;16.25;;;15.80;99.90;;;;;;2095200;28;20041;-76
2023/10/20 05:15:23;;;;;;;20.17;16.15;;;15.80;99.90;;;;;;2104647;28;20116;-75
2023/10/20 05:16:31;;;;;;;17.27;15.48;;;15.80;99.90;;;;;;2099000;28;20650;-74
2023/10/20 05:17:34;;;;;;;17.70;15.98;;;15.80;99.90;;;;;;2101367;28;20032;-77
2023/10/20 05:18:34;;;;;;;17.85;16.05;;;15.80;99.90;;;;;;2099559;28;20582;-74
2023/10/20 05:19:36;;;;;;;17.05;15.35;;;15.80;99.90;;;;;;2099748;28;20240;-75
2023/10/20 05:20:37;;;;;;;19.20;15.77;;;15.80;99.90;;;;;;2099011;28;20029;-74
2023/10/20 05:21:40;;;;;;;16.98;15.45;;;15.80;99.90;;;;;;2100732;28;20032;-73
2023/10/20 05:22:41;;;;;;;17.75;15.77;;;15.80;99.90;;;;;;2103909;28;20119;-72
2023/10/20 05:23:49;;;;;;;16.15;14.40;;;15.80;99.90;;;;;;2102358;28;20107;-75
2023/10/20 05:24:51;;;;;;;16.23;14.63;;;15.80;99.90;;;;;;2100954;28;20083;-72
2023/10/20 05:25:52;;;;;;;18.15;14.75;;;15.80;99.90;;;;;;2099109;28;20028;-75
2023/10/20 05:26:52;;;;;;;15.18;13.77;;;15.80;99.90;;;;;;2098978;28;20024;-74
2023/10/20 05:27:54;;;;;;;15.50;13.98;;;15.80;99.90;;;;;;2098686;28;20028;-75
2023/10/20 05:28:56;;;;;;;15.43;13.93;;;15.80;99.90;;;;;;2096736;28;20028;-75
2023/10/20 05:29:56;;;;;;;14.95;13.63;;;15.80;99.90;;;;;;2098496;28;20462;-74
2023/10/20 05:31:00;;;;;;;15.48;13.88;;;15.80;99.90;;;;;;2099938;28;20088;-74
2023/10/20 05:32:01;;;;;;;14.77;13.07;;;15.80;99.90;;;;;;2097694;28;20039;-73
2023/10/20 05:33:01;;;;;;;15.45;13.68;;;15.90;99.90;;;;;;2100484;28;20123;-73
2023/10/20 05:34:02;;;;;;;14.48;12.88;;;15.80;99.90;;;;;;2100907;28;20028;-72
2023/10/20 05:35:04;;;;;;;15.20;13.60;;;15.80;99.90;;;;;;2097373;28;20028;-72
2023/10/20 05:36:08;;;;;;;15.18;13.27;;;15.80;99.90;;;;;;2097223;28;20024;-73
2023/10/20 05:37:11;;;;;;;14.75;13.35;;;15.90;99.90;;;;;;2089429;28;20037;-74
2023/10/20 05:38:12;;;;;;;14.05;12.65;;;15.80;99.90;;;;;;2095766;28;20029;-74
2023/10/20 05:39:13;;;;;;;15.50;13.38;;;15.90;99.90;;;;;;2094562;28;20060;-73
2023/10/20 05:40:14;;;;;;;15.45;13.30;;;15.90;99.90;;;;;;2094273;28;20033;-74
2023/10/20 05:41:15;;;;;;;14.88;13.25;;;15.80;99.90;;;;;;2104058;28;20025;-75
2023/10/20 05:42:18;;;;;;;14.40;13.00;;;15.80;99.90;;;;;;2100930;28;20040;-75
2023/10/20 05:43:18;;;;;;;14.57;13.18;;;15.90;99.90;;;;;;2098528;28;20024;-72
2023/10/20 05:44:23;;;;;;;15.02;13.52;;;15.90;99.90;;;;;;2097909;28;20135;-74
2023/10/20 05:45:41;;;;;;;14.65;13.15;;;15.90;99.90;;;;;;2098104;28;20024;-74
2023/10/20 05:46:42;;;;;;;13.48;12.07;;;15.80;99.90;;;;;;2098820;28;20043;-74
2023/10/20 05:47:43;;;;;;;15.00;13.48;;;15.80;99.90;;;;;;2098579;28;20024;-75